Western King — CY7367 — position and weather

sailwx.info

Track history (hours):
 
Tides and Currents Weather Stations Pressure Air Temp Water Temp Dewpoint Dewpoint Depression Visibility Wind Speed Wind Dir Waves Ship Positions

Western King

Last reported at 2015-Aug-01 02:19 UTC. Time now 2015-Aug-01 07:50 UTC.
Position N 50°02' W 125°15'.

Length 23 m; draft 3.8 m.

Type: Fishing. MMSI: 316003779.

Date/timePositionNaut miles runAvg speedWind from/ knotsBaromVisibWave heightAir tempDewpointWater temp
2015-Aug-01 02:19N 50°02' W 125°15'0 0.0
2015-Jul-31 10:17N 50°02' W 125°15'0 0.0
2015-Jul-31 09:30N 50°02' W 125°15'0 0.0
2015-Jul-31 08:33N 50°02' W 125°15'0 0.0
2015-Jul-30 05:33N 50°02' W 125°15'0 0.0
2015-Jul-30 04:28N 50°02' W 125°15'0 0.0
2015-Jul-30 03:33N 50°02' W 125°15'0 0.0
2015-Jul-29 10:26N 50°02' W 125°15'7 8.5
2015-Jul-29 09:33N 49°57' W 125°06'9 9.3
2015-Jul-29 08:33N 49°51' W 124°55'9 8.9
2015-Jul-29 07:33N 49°45' W 124°45'9 9.2
2015-Jul-29 06:33N 49°40' W 124°33'10 9.7
2015-Jul-29 05:33N 49°34' W 124°21'9 9.1
2015-Jul-29 04:33N 49°29' W 124°09'9 9.4
2015-Jul-29 03:33N 49°26' W 123°56'10 9.6
2015-Jul-29 02:33N 49°22' W 123°42'10 9.6
2015-Jul-29 01:33N 49°19' W 123°28'9 8.6
2015-Jul-29 00:34N 49°15' W 123°16'8 7.7
2015-Jul-28 23:33N 49°12' W 123°05'0 0.0
2015-Jul-28 22:33N 49°12' W 123°05'0 0.0
2015-Jul-28 21:33N 49°12' W 123°05'0 0.0
2015-Jul-28 18:33N 49°12' W 123°05'0 0.0
2015-Jul-28 17:33N 49°12' W 123°05'3 2.8
2015-Jul-28 16:33N 49°13' W 123°10'7 7.3
2015-Jul-28 15:33N 49°16' W 123°19'9 9.2
2015-Jul-28 14:33N 49°20' W 123°32'9 8.5
2015-Jul-28 13:33N 49°23' W 123°45'9 9.1
2015-Jul-28 12:33N 49°26' W 123°58'9 9.3
2015-Jul-28 11:33N 49°30' W 124°11'9 9.4
2015-Jul-28 10:33N 49°35' W 124°23'9 9.0
2015-Jul-28 09:33N 49°40' W 124°35'10 9.6
2015-Jul-28 08:33N 49°46' W 124°46'9 9.4
2015-Jul-28 07:33N 49°52' W 124°58'9 9.2
2015-Jul-28 06:33N 49°57' W 125°09'6 5.9
2015-Jul-28 05:31N 50°02' W 125°15'0 0.0
2015-Jul-28 04:22N 50°02' W 125°15'0 0.0
2015-Jul-28 03:31N 50°02' W 125°15'0 0.0
2015-Jul-28 02:32N 50°02' W 125°15'0 0.0
2015-Jul-28 01:30N 50°02' W 125°15'0 0.0
2015-Jul-28 00:28N 50°02' W 125°15'0 0.0
2015-Jul-27 23:28N 50°02' W 125°15'0 0.0
2015-Jul-27 22:31N 50°02' W 125°15'0 0.0
2015-Jul-27 21:32N 50°02' W 125°15'0 0.0
2015-Jul-27 19:33N 50°02' W 125°15'0 0.0
2015-Jul-27 18:29N 50°02' W 125°15'0 0.0
2015-Jul-27 17:33N 50°02' W 125°15'0 0.0
2015-Jul-27 16:33N 50°02' W 125°15'0 0.0
2015-Jul-27 15:33N 50°02' W 125°15'0 0.0
2015-Jul-27 14:33N 50°02' W 125°15'0 0.0
2015-Jul-27 13:33N 50°02' W 125°15'0 0.0
2015-Jul-27 12:33N 50°02' W 125°15'0 0.0
2015-Jul-27 11:33N 50°02' W 125°15'0 0.0
2015-Jul-27 09:33N 50°02' W 125°15'0 0.0
2015-Jul-27 08:31N 50°02' W 125°15'0 0.0
2015-Jul-27 06:04N 50°02' W 125°15'0 0.0
2015-Jul-27 05:23N 50°02' W 125°15'0 0.0
2015-Jul-27 04:13N 50°02' W 125°15'0 0.0
2015-Jul-27 03:32N 50°02' W 125°15'0 0.0
2015-Jul-27 01:33N 50°02' W 125°15'0 0.0
2015-Jul-27 00:33N 50°02' W 125°15'0 0.0
2015-Jul-26 23:33N 50°02' W 125°15'0 0.0
2015-Jul-26 22:33N 50°02' W 125°15'0 0.0
2015-Jul-26 19:31N 50°02' W 125°15'0 0.0
2015-Jul-26 18:33N 50°02' W 125°15'0 0.0
2015-Jul-26 17:33N 50°02' W 125°15'0 0.0
2015-Jul-26 16:29N 50°02' W 125°15'0 0.0
2015-Jul-26 15:33N 50°02' W 125°15'0 0.0
2015-Jul-26 14:33N 50°02' W 125°15'0 0.0
2015-Jul-26 13:21N 50°02' W 125°15'0 0.0
2015-Jul-26 12:33N 50°02' W 125°15'0 0.0
2015-Jul-26 11:26N 50°02' W 125°15'0 0.0
2015-Jul-26 10:22N 50°02' W 125°15'0 0.0
2015-Jul-26 09:33N 50°02' W 125°15'0 0.0
2015-Jul-26 07:33N 50°02' W 125°15'0 0.0
2015-Jul-26 06:26N 50°02' W 125°15'0 0.0
2015-Jul-26 03:17N 50°02' W 125°15'0 0.0
2015-Jul-26 01:23N 50°02' W 125°15'0 0.0
2015-Jul-25 23:32N 50°02' W 125°15'0 0.0
2015-Jul-25 22:19N 50°02' W 125°15'0 0.0
2015-Jul-25 21:30N 50°02' W 125°15'0 0.0
2015-Jul-25 20:28N 50°02' W 125°15'0 0.0
2015-Jul-25 19:29N 50°02' W 125°15'0 0.0
2015-Jul-25 18:33N 50°02' W 125°15'0 0.0
2015-Jul-25 17:33N 50°02' W 125°15'0 0.0
2015-Jul-25 16:30N 50°02' W 125°15'0 0.0
2015-Jul-25 15:33N 50°02' W 125°15'0 0.0
2015-Jul-25 14:33N 50°02' W 125°15'0 0.0
2015-Jul-25 13:27N 50°02' W 125°15'0 0.0
2015-Jul-25 12:33N 50°02' W 125°15'0 0.0
2015-Jul-25 11:33N 50°02' W 125°15'0 0.0
2015-Jul-25 10:33N 50°02' W 125°15'0 0.0
2015-Jul-25 09:32N 50°02' W 125°15'0 0.0
2015-Jul-25 08:33N 50°02' W 125°15'0 0.0
2015-Jul-25 07:33N 50°02' W 125°15'0 0.0
2015-Jul-25 06:29N 50°02' W 125°15'0 0.0
2015-Jul-25 05:33N 50°02' W 125°15'0 0.0
2015-Jul-25 04:30N 50°02' W 125°15'0 0.0
2015-Jul-25 03:33N 50°02' W 125°15'0 0.0
2015-Jul-25 02:17N 50°02' W 125°15'0 0.0
2015-Jul-25 01:33N 50°02' W 125°15'0 0.0
2015-Jul-25 00:32N 50°02' W 125°15'0 0.0
2015-Jul-24 23:33N 50°02' W 125°15'0 0.0
2015-Jul-24 22:33N 50°02' W 125°15'0 0.0
2015-Jul-24 21:33N 50°02' W 125°15'0 0.0
2015-Jul-24 20:33N 50°02' W 125°15'0 0.0
2015-Jul-24 19:33N 50°02' W 125°15'0 0.0
2015-Jul-24 18:33N 50°02' W 125°15'  
Track history (hours):
 
Tides and Currents Weather Stations Pressure Air Temp Water Temp Dewpoint Dewpoint Depression Visibility Wind Speed Wind Dir Waves Ship Positions

Western King

Last reported at 2015-Aug-01 02:19 UTC. Time now 2015-Aug-01 07:51 UTC.
Position N 50°02' W 125°15'.

Length 23 m; draft 3.8 m.

Type: Fishing. MMSI: 316003779.

Date/timePositionNaut miles runAvg speedWind from/ knotsBaromVisibWave heightAir tempDewpointWater temp
2015-Aug-01 02:19N 50°02' W 125°15'0 0.0
2015-Jul-31 10:17N 50°02' W 125°15'0 0.0
2015-Jul-31 09:30N 50°02' W 125°15'0 0.0
2015-Jul-31 08:33N 50°02' W 125°15'0 0.0
2015-Jul-30 05:33N 50°02' W 125°15'0 0.0
2015-Jul-30 04:28N 50°02' W 125°15'0 0.0
2015-Jul-30 03:33N 50°02' W 125°15'0 0.0
2015-Jul-29 10:26N 50°02' W 125°15'7 8.5
2015-Jul-29 09:33N 49°57' W 125°06'9 9.3
2015-Jul-29 08:33N 49°51' W 124°55'9 8.9
2015-Jul-29 07:33N 49°45' W 124°45'9 9.2
2015-Jul-29 06:33N 49°40' W 124°33'10 9.7
2015-Jul-29 05:33N 49°34' W 124°21'9 9.1
2015-Jul-29 04:33N 49°29' W 124°09'9 9.4
2015-Jul-29 03:33N 49°26' W 123°56'10 9.6
2015-Jul-29 02:33N 49°22' W 123°42'10 9.6
2015-Jul-29 01:33N 49°19' W 123°28'9 8.6
2015-Jul-29 00:34N 49°15' W 123°16'8 7.7
2015-Jul-28 23:33N 49°12' W 123°05'0 0.0
2015-Jul-28 22:33N 49°12' W 123°05'0 0.0
2015-Jul-28 21:33N 49°12' W 123°05'0 0.0
2015-Jul-28 18:33N 49°12' W 123°05'0 0.0
2015-Jul-28 17:33N 49°12' W 123°05'3 2.8
2015-Jul-28 16:33N 49°13' W 123°10'7 7.3
2015-Jul-28 15:33N 49°16' W 123°19'9 9.2
2015-Jul-28 14:33N 49°20' W 123°32'9 8.5
2015-Jul-28 13:33N 49°23' W 123°45'9 9.1
2015-Jul-28 12:33N 49°26' W 123°58'9 9.3
2015-Jul-28 11:33N 49°30' W 124°11'9 9.4
2015-Jul-28 10:33N 49°35' W 124°23'9 9.0
2015-Jul-28 09:33N 49°40' W 124°35'10 9.6
2015-Jul-28 08:33N 49°46' W 124°46'9 9.4
2015-Jul-28 07:33N 49°52' W 124°58'9 9.2
2015-Jul-28 06:33N 49°57' W 125°09'6 5.9
2015-Jul-28 05:31N 50°02' W 125°15'0 0.0
2015-Jul-28 04:22N 50°02' W 125°15'0 0.0
2015-Jul-28 03:31N 50°02' W 125°15'0 0.0
2015-Jul-28 02:32N 50°02' W 125°15'0 0.0
2015-Jul-28 01:30N 50°02' W 125°15'0 0.0
2015-Jul-28 00:28N 50°02' W 125°15'0 0.0
2015-Jul-27 23:28N 50°02' W 125°15'0 0.0
2015-Jul-27 22:31N 50°02' W 125°15'0 0.0
2015-Jul-27 21:32N 50°02' W 125°15'0 0.0
2015-Jul-27 19:33N 50°02' W 125°15'0 0.0
2015-Jul-27 18:29N 50°02' W 125°15'0 0.0
2015-Jul-27 17:33N 50°02' W 125°15'0 0.0
2015-Jul-27 16:33N 50°02' W 125°15'0 0.0
2015-Jul-27 15:33N 50°02' W 125°15'0 0.0
2015-Jul-27 14:33N 50°02' W 125°15'0 0.0
2015-Jul-27 13:33N 50°02' W 125°15'0 0.0
2015-Jul-27 12:33N 50°02' W 125°15'0 0.0
2015-Jul-27 11:33N 50°02' W 125°15'0 0.0
2015-Jul-27 09:33N 50°02' W 125°15'0 0.0
2015-Jul-27 08:31N 50°02' W 125°15'0 0.0
2015-Jul-27 06:04N 50°02' W 125°15'0 0.0
2015-Jul-27 05:23N 50°02' W 125°15'0 0.0
2015-Jul-27 04:13N 50°02' W 125°15'0 0.0
2015-Jul-27 03:32N 50°02' W 125°15'0 0.0
2015-Jul-27 01:33N 50°02' W 125°15'0 0.0
2015-Jul-27 00:33N 50°02' W 125°15'0 0.0
2015-Jul-26 23:33N 50°02' W 125°15'0 0.0
2015-Jul-26 22:33N 50°02' W 125°15'0 0.0
2015-Jul-26 19:31N 50°02' W 125°15'0 0.0
2015-Jul-26 18:33N 50°02' W 125°15'0 0.0
2015-Jul-26 17:33N 50°02' W 125°15'0 0.0
2015-Jul-26 16:29N 50°02' W 125°15'0 0.0
2015-Jul-26 15:33N 50°02' W 125°15'0 0.0
2015-Jul-26 14:33N 50°02' W 125°15'0 0.0
2015-Jul-26 13:21N 50°02' W 125°15'0 0.0
2015-Jul-26 12:33N 50°02' W 125°15'0 0.0
2015-Jul-26 11:26N 50°02' W 125°15'0 0.0
2015-Jul-26 10:22N 50°02' W 125°15'0 0.0
2015-Jul-26 09:33N 50°02' W 125°15'0 0.0
2015-Jul-26 07:33N 50°02' W 125°15'0 0.0
2015-Jul-26 06:26N 50°02' W 125°15'0 0.0
2015-Jul-26 03:17N 50°02' W 125°15'0 0.0
2015-Jul-26 01:23N 50°02' W 125°15'0 0.0
2015-Jul-25 23:32N 50°02' W 125°15'0 0.0
2015-Jul-25 22:19N 50°02' W 125°15'0 0.0
2015-Jul-25 21:30N 50°02' W 125°15'0 0.0
2015-Jul-25 20:28N 50°02' W 125°15'0 0.0
2015-Jul-25 19:29N 50°02' W 125°15'0 0.0
2015-Jul-25 18:33N 50°02' W 125°15'0 0.0
2015-Jul-25 17:33N 50°02' W 125°15'0 0.0
2015-Jul-25 16:30N 50°02' W 125°15'0 0.0
2015-Jul-25 15:33N 50°02' W 125°15'0 0.0
2015-Jul-25 14:33N 50°02' W 125°15'0 0.0
2015-Jul-25 13:27N 50°02' W 125°15'0 0.0
2015-Jul-25 12:33N 50°02' W 125°15'0 0.0
2015-Jul-25 11:33N 50°02' W 125°15'0 0.0
2015-Jul-25 10:33N 50°02' W 125°15'0 0.0
2015-Jul-25 09:32N 50°02' W 125°15'0 0.0
2015-Jul-25 08:33N 50°02' W 125°15'0 0.0
2015-Jul-25 07:33N 50°02' W 125°15'0 0.0
2015-Jul-25 06:29N 50°02' W 125°15'0 0.0
2015-Jul-25 05:33N 50°02' W 125°15'0 0.0
2015-Jul-25 04:30N 50°02' W 125°15'0 0.0
2015-Jul-25 03:33N 50°02' W 125°15'0 0.0
2015-Jul-25 02:17N 50°02' W 125°15'0 0.0
2015-Jul-25 01:33N 50°02' W 125°15'0 0.0
2015-Jul-25 00:32N 50°02' W 125°15'0 0.0
2015-Jul-24 23:33N 50°02' W 125°15'0 0.0
2015-Jul-24 22:33N 50°02' W 125°15'0 0.0
2015-Jul-24 21:33N 50°02' W 125°15'0 0.0
2015-Jul-24 20:33N 50°02' W 125°15'0 0.0
2015-Jul-24 19:33N 50°02' W 125°15'0 0.0
2015-Jul-24 18:33N 50°02' W 125°15'  

Dump ship's entire track history